sensor_id;sensor_type;location;lat;lon;timestamp;P1;durP1;ratioP1;P2;durP2;ratioP2
37645;SDS011;23489;49.600;6.138;2024-03-22T00:00:15;4.47;;;3.25;;
37645;SDS011;23489;49.600;6.138;2024-03-22T00:02:41;4.97;;;3.10;;
37645;SDS011;23489;49.600;6.138;2024-03-22T00:05:07;4.65;;;3.22;;
37645;SDS011;23489;49.600;6.138;2024-03-22T00:07:33;5.13;;;3.67;;
37645;SDS011;23489;49.600;6.138;2024-03-22T00:09:58;3.95;;;3.08;;
37645;SDS011;23489;49.600;6.138;2024-03-22T00:12:25;4.40;;;3.30;;
37645;SDS011;23489;49.600;6.138;2024-03-22T00:14:51;10.02;;;3.35;;
37645;SDS011;23489;49.600;6.138;2024-03-22T00:17:19;4.40;;;3.15;;
37645;SDS011;23489;49.600;6.138;2024-03-22T00:19:46;4.30;;;3.25;;
37645;SDS011;23489;49.600;6.138;2024-03-22T00:22:11;7.13;;;3.33;;
37645;SDS011;23489;49.600;6.138;2024-03-22T00:24:37;5.32;;;3.53;;
37645;SDS011;23489;49.600;6.138;2024-03-22T00:27:03;4.07;;;3.20;;
37645;SDS011;23489;49.600;6.138;2024-03-22T00:29:29;4.25;;;2.72;;
37645;SDS011;23489;49.600;6.138;2024-03-22T00:31:54;5.82;;;3.60;;
37645;SDS011;23489;49.600;6.138;2024-03-22T00:34:20;4.97;;;3.15;;
37645;SDS011;23489;49.600;6.138;2024-03-22T00:36:46;5.22;;;2.90;;
37645;SDS011;23489;49.600;6.138;2024-03-22T00:39:12;6.28;;;2.90;;
37645;SDS011;23489;49.600;6.138;2024-03-22T00:41:37;6.80;;;2.83;;
37645;SDS011;23489;49.600;6.138;2024-03-22T00:44:04;6.13;;;3.15;;
37645;SDS011;23489;49.600;6.138;2024-03-22T00:46:29;6.32;;;3.60;;
37645;SDS011;23489;49.600;6.138;2024-03-22T00:48:56;4.75;;;3.38;;
37645;SDS011;23489;49.600;6.138;2024-03-22T04:22:59;7.50;;;4.03;;
37645;SDS011;23489;49.600;6.138;2024-03-22T04:25:24;6.40;;;3.65;;
37645;SDS011;23489;49.600;6.138;2024-03-22T04:27:50;5.88;;;4.10;;
37645;SDS011;23489;49.600;6.138;2024-03-22T04:30:16;6.68;;;4.00;;
37645;SDS011;23489;49.600;6.138;2024-03-22T04:32:41;7.18;;;4.43;;
37645;SDS011;23489;49.600;6.138;2024-03-22T04:35:07;7.43;;;4.82;;
37645;SDS011;23489;49.600;6.138;2024-03-22T04:37:33;7.03;;;4.15;;
37645;SDS011;23489;49.600;6.138;2024-03-22T04:39:59;7.07;;;5.07;;
37645;SDS011;23489;49.600;6.138;2024-03-22T04:42:25;6.75;;;4.75;;
37645;SDS011;23489;49.600;6.138;2024-03-22T04:44:50;9.13;;;5.13;;
37645;SDS011;23489;49.600;6.138;2024-03-22T04:47:16;8.20;;;4.85;;
37645;SDS011;23489;49.600;6.138;2024-03-22T04:49:41;7.90;;;5.40;;
37645;SDS011;23489;49.600;6.138;2024-03-22T04:52:07;7.78;;;5.63;;
37645;SDS011;23489;49.600;6.138;2024-03-22T04:54:33;7.72;;;5.10;;
37645;SDS011;23489;49.600;6.138;2024-03-22T04:56:58;8.82;;;5.72;;
37645;SDS011;23489;49.600;6.138;2024-03-22T04:59:24;11.52;;;5.90;;
37645;SDS011;23489;49.600;6.138;2024-03-22T05:01:50;8.65;;;5.82;;
37645;SDS011;23489;49.600;6.138;2024-03-22T05:04:16;10.98;;;5.10;;
37645;SDS011;23489;49.600;6.138;2024-03-22T05:06:41;7.85;;;5.50;;
37645;SDS011;23489;49.600;6.138;2024-03-22T05:09:07;8.10;;;5.63;;
37645;SDS011;23489;49.600;6.138;2024-03-22T05:11:35;8.95;;;5.65;;
37645;SDS011;23489;49.600;6.138;2024-03-22T05:14:01;10.05;;;5.35;;
37645;SDS011;23489;49.600;6.138;2024-03-22T05:16:26;6.90;;;5.18;;
37645;SDS011;23489;49.600;6.138;2024-03-22T05:18:52;8.93;;;5.30;;
37645;SDS011;23489;49.600;6.138;2024-03-22T05:21:18;8.43;;;5.43;;
37645;SDS011;23489;49.600;6.138;2024-03-22T05:23:44;9.60;;;5.53;;
37645;SDS011;23489;49.600;6.138;2024-03-22T05:26:10;9.23;;;5.30;;
37645;SDS011;23489;49.600;6.138;2024-03-22T05:28:35;8.75;;;5.30;;
37645;SDS011;23489;49.600;6.138;2024-03-22T05:31:01;7.22;;;5.20;;
37645;SDS011;23489;49.600;6.138;2024-03-22T05:33:27;8.05;;;5.30;;
37645;SDS011;23489;49.600;6.138;2024-03-22T05:35:53;8.30;;;5.10;;
37645;SDS011;23489;49.600;6.138;2024-03-22T05:38:19;9.23;;;5.85;;
37645;SDS011;23489;49.600;6.138;2024-03-22T05:40:45;10.70;;;5.63;;
37645;SDS011;23489;49.600;6.138;2024-03-22T05:43:12;8.38;;;5.65;;
37645;SDS011;23489;49.600;6.138;2024-03-22T05:45:39;7.45;;;4.72;;
37645;SDS011;23489;49.600;6.138;2024-03-22T05:48:04;8.07;;;5.13;;
37645;SDS011;23489;49.600;6.138;2024-03-22T05:50:31;8.60;;;4.50;;
37645;SDS011;23489;49.600;6.138;2024-03-22T05:52:56;8.35;;;5.20;;
37645;SDS011;23489;49.600;6.138;2024-03-22T05:55:22;9.63;;;4.82;;
37645;SDS011;23489;49.600;6.138;2024-03-22T05:57:48;8.27;;;4.70;;
37645;SDS011;23489;49.600;6.138;2024-03-22T06:00:14;8.15;;;5.00;;
37645;SDS011;23489;49.600;6.138;2024-03-22T06:02:40;8.82;;;5.43;;
37645;SDS011;23489;49.600;6.138;2024-03-22T06:05:06;9.43;;;5.93;;
37645;SDS011;23489;49.600;6.138;2024-03-22T06:07:32;9.73;;;5.40;;
37645;SDS011;23489;49.600;6.138;2024-03-22T06:10:05;9.70;;;5.30;;
37645;SDS011;23489;49.600;6.138;2024-03-22T06:12:31;7.75;;;5.20;;
37645;SDS011;23489;49.600;6.138;2024-03-22T06:14:57;7.85;;;5.00;;
37645;SDS011;23489;49.600;6.138;2024-03-22T06:17:23;7.40;;;4.88;;
37645;SDS011;23489;49.600;6.138;2024-03-22T06:19:48;9.95;;;5.13;;
37645;SDS011;23489;49.600;6.138;2024-03-22T06:22:14;9.20;;;5.35;;
37645;SDS011;23489;49.600;6.138;2024-03-22T06:24:40;8.77;;;5.40;;
37645;SDS011;23489;49.600;6.138;2024-03-22T06:27:05;7.90;;;5.32;;
37645;SDS011;23489;49.600;6.138;2024-03-22T06:29:32;10.05;;;5.70;;
37645;SDS011;23489;49.600;6.138;2024-03-22T06:31:58;10.43;;;5.75;;
37645;SDS011;23489;49.600;6.138;2024-03-22T06:34:24;10.18;;;5.88;;
37645;SDS011;23489;49.600;6.138;2024-03-22T06:36:49;6.72;;;5.18;;
37645;SDS011;23489;49.600;6.138;2024-03-22T06:39:16;11.05;;;5.70;;
37645;SDS011;23489;49.600;6.138;2024-03-22T06:41:41;8.10;;;5.50;;
37645;SDS011;23489;49.600;6.138;2024-03-22T06:44:07;8.27;;;5.57;;
37645;SDS011;23489;49.600;6.138;2024-03-22T06:46:37;11.10;;;6.15;;
37645;SDS011;23489;49.600;6.138;2024-03-22T06:49:03;15.90;;;6.03;;
37645;SDS011;23489;49.600;6.138;2024-03-22T06:51:28;7.75;;;5.97;;
37645;SDS011;23489;49.600;6.138;2024-03-22T06:53:54;15.82;;;6.28;;
37645;SDS011;23489;49.600;6.138;2024-03-22T06:56:20;13.63;;;6.70;;
37645;SDS011;23489;49.600;6.138;2024-03-22T06:58:46;8.05;;;6.22;;
37645;SDS011;23489;49.600;6.138;2024-03-22T07:01:11;12.70;;;6.55;;
37645;SDS011;23489;49.600;6.138;2024-03-22T07:03:38;9.95;;;6.25;;
37645;SDS011;23489;49.600;6.138;2024-03-22T07:06:13;11.38;;;6.68;;
37645;SDS011;23489;49.600;6.138;2024-03-22T07:08:40;8.98;;;6.22;;
37645;SDS011;23489;49.600;6.138;2024-03-22T07:11:06;14.05;;;6.78;;
37645;SDS011;23489;49.600;6.138;2024-03-22T07:13:32;18.02;;;7.18;;
37645;SDS011;23489;49.600;6.138;2024-03-22T07:15:58;9.57;;;6.25;;
37645;SDS011;23489;49.600;6.138;2024-03-22T07:18:25;13.02;;;6.68;;
37645;SDS011;23489;49.600;6.138;2024-03-22T07:50:02;14.23;;;6.47;;
37645;SDS011;23489;49.600;6.138;2024-03-22T07:52:28;14.23;;;6.65;;
37645;SDS011;23489;49.600;6.138;2024-03-22T07:54:54;12.88;;;6.70;;
37645;SDS011;23489;49.600;6.138;2024-03-22T08:45:59;9.63;;;6.28;;
37645;SDS011;23489;49.600;6.138;2024-03-22T08:48:24;17.90;;;7.80;;
37645;SDS011;23489;49.600;6.138;2024-03-22T08:50:50;12.43;;;7.80;;
37645;SDS011;23489;49.600;6.138;2024-03-22T08:53:16;11.05;;;7.30;;
37645;SDS011;23489;49.600;6.138;2024-03-22T08:55:45;13.73;;;8.27;;
37645;SDS011;23489;49.600;6.138;2024-03-22T08:58:13;10.48;;;7.90;;
37645;SDS011;23489;49.600;6.138;2024-03-22T09:00:43;11.15;;;7.65;;
37645;SDS011;23489;49.600;6.138;2024-03-22T09:12:54;15.18;;;10.10;;
37645;SDS011;23489;49.600;6.138;2024-03-22T09:15:21;13.88;;;10.27;;
37645;SDS011;23489;49.600;6.138;2024-03-22T09:17:47;16.48;;;9.65;;
37645;SDS011;23489;49.600;6.138;2024-03-22T09:20:13;15.35;;;10.45;;
37645;SDS011;23489;49.600;6.138;2024-03-22T09:22:39;17.00;;;10.20;;
37645;SDS011;23489;49.600;6.138;2024-03-22T09:44:33;18.02;;;10.35;;
37645;SDS011;23489;49.600;6.138;2024-03-22T19:49:49;16.63;;;10.73;;
37645;SDS011;23489;49.600;6.138;2024-03-22T20:28:45;18.60;;;12.13;;
37645;SDS011;23489;49.600;6.138;2024-03-22T20:31:10;16.77;;;10.43;;
37645;SDS011;23489;49.600;6.138;2024-03-22T20:33:38;19.73;;;10.65;;
37645;SDS011;23489;49.600;6.138;2024-03-22T20:36:06;16.35;;;11.80;;
